sensor_id;sensor_type;location;lat;lon;timestamp;P1;durP1;ratioP1;P2;durP2;ratioP2
1715;SDS011;855;48.824;9.220;2022-11-25T00:04:16;6.50;;;3.93;;
1715;SDS011;855;48.824;9.220;2022-11-25T00:06:43;7.33;;;3.80;;
1715;SDS011;855;48.824;9.220;2022-11-25T00:09:10;7.17;;;3.80;;
1715;SDS011;855;48.824;9.220;2022-11-25T00:11:38;15.67;;;4.43;;
1715;SDS011;855;48.824;9.220;2022-11-25T00:14:06;9.30;;;4.53;;
1715;SDS011;855;48.824;9.220;2022-11-25T00:16:35;12.40;;;4.13;;
1715;SDS011;855;48.824;9.220;2022-11-25T00:19:02;8.50;;;3.83;;
1715;SDS011;855;48.824;9.220;2022-11-25T00:21:32;9.50;;;4.20;;
1715;SDS011;855;48.824;9.220;2022-11-25T00:23:59;12.90;;;4.63;;
1715;SDS011;855;48.824;9.220;2022-11-25T00:26:27;8.20;;;4.07;;
1715;SDS011;855;48.824;9.220;2022-11-25T00:28:56;9.63;;;3.90;;
1715;SDS011;855;48.824;9.220;2022-11-25T00:31:25;14.37;;;5.80;;
1715;SDS011;855;48.824;9.220;2022-11-25T00:33:53;19.43;;;4.70;;
1715;SDS011;855;48.824;9.220;2022-11-25T00:36:21;19.33;;;5.10;;
1715;SDS011;855;48.824;9.220;2022-11-25T00:38:52;5.53;;;3.60;;
1715;SDS011;855;48.824;9.220;2022-11-25T00:41:20;5.97;;;4.33;;
1715;SDS011;855;48.824;9.220;2022-11-25T00:44:05;17.27;;;3.80;;
1715;SDS011;855;48.824;9.220;2022-11-25T00:46:51;12.20;;;4.80;;
1715;SDS011;855;48.824;9.220;2022-11-25T00:49:17;7.00;;;3.90;;
1715;SDS011;855;48.824;9.220;2022-11-25T00:51:44;7.33;;;3.67;;
1715;SDS011;855;48.824;9.220;2022-11-25T00:54:13;7.47;;;4.97;;
1715;SDS011;855;48.824;9.220;2022-11-25T00:56:40;11.83;;;5.53;;
1715;SDS011;855;48.824;9.220;2022-11-25T00:59:06;11.53;;;4.33;;
1715;SDS011;855;48.824;9.220;2022-11-25T01:01:33;8.33;;;4.07;;
1715;SDS011;855;48.824;9.220;2022-11-25T01:04:01;13.63;;;5.67;;
1715;SDS011;855;48.824;9.220;2022-11-25T01:06:29;15.63;;;5.30;;
1715;SDS011;855;48.824;9.220;2022-11-25T01:08:56;11.53;;;4.80;;
1715;SDS011;855;48.824;9.220;2022-11-25T01:11:24;12.73;;;5.27;;
1715;SDS011;855;48.824;9.220;2022-11-25T01:13:51;9.20;;;4.80;;
1715;SDS011;855;48.824;9.220;2022-11-25T01:16:20;8.03;;;5.33;;
1715;SDS011;855;48.824;9.220;2022-11-25T01:18:48;13.17;;;4.77;;
1715;SDS011;855;48.824;9.220;2022-11-25T01:21:16;9.13;;;4.20;;
1715;SDS011;855;48.824;9.220;2022-11-25T01:23:44;14.30;;;4.97;;
1715;SDS011;855;48.824;9.220;2022-11-25T01:26:14;14.70;;;6.17;;
1715;SDS011;855;48.824;9.220;2022-11-25T01:28:45;7.70;;;5.10;;
1715;SDS011;855;48.824;9.220;2022-11-25T01:31:13;15.77;;;6.70;;
1715;SDS011;855;48.824;9.220;2022-11-25T01:33:42;12.77;;;5.13;;
1715;SDS011;855;48.824;9.220;2022-11-25T01:36:10;15.50;;;6.17;;
1715;SDS011;855;48.824;9.220;2022-11-25T01:38:39;10.63;;;4.60;;
1715;SDS011;855;48.824;9.220;2022-11-25T01:41:08;9.80;;;4.83;;
1715;SDS011;855;48.824;9.220;2022-11-25T01:43:36;9.87;;;5.80;;
1715;SDS011;855;48.824;9.220;2022-11-25T01:46:06;8.53;;;5.60;;
1715;SDS011;855;48.824;9.220;2022-11-25T01:48:37;11.10;;;5.73;;
1715;SDS011;855;48.824;9.220;2022-11-25T01:53:43;9.80;;;5.47;;
1715;SDS011;855;48.824;9.220;2022-11-25T01:56:11;11.83;;;5.07;;
1715;SDS011;855;48.824;9.220;2022-11-25T01:58:38;11.63;;;4.80;;
1715;SDS011;855;48.824;9.220;2022-11-25T02:01:10;17.37;;;5.60;;
1715;SDS011;855;48.824;9.220;2022-11-25T02:06:14;15.90;;;5.80;;
1715;SDS011;855;48.824;9.220;2022-11-25T02:08:47;11.93;;;5.40;;
1715;SDS011;855;48.824;9.220;2022-11-25T02:11:18;18.53;;;5.30;;
1715;SDS011;855;48.824;9.220;2022-11-25T02:14:01;15.40;;;5.07;;
1715;SDS011;855;48.824;9.220;2022-11-25T02:16:30;14.27;;;5.70;;
1715;SDS011;855;48.824;9.220;2022-11-25T02:18:57;18.97;;;6.73;;
1715;SDS011;855;48.824;9.220;2022-11-25T02:21:33;13.87;;;6.00;;
1715;SDS011;855;48.824;9.220;2022-11-25T02:24:06;8.20;;;4.87;;
1715;SDS011;855;48.824;9.220;2022-11-25T02:26:42;14.13;;;4.70;;
1715;SDS011;855;48.824;9.220;2022-11-25T02:29:09;10.73;;;4.60;;
1715;SDS011;855;48.824;9.220;2022-11-25T02:31:38;6.00;;;3.77;;
1715;SDS011;855;48.824;9.220;2022-11-25T02:34:05;9.33;;;4.73;;
1715;SDS011;855;48.824;9.220;2022-11-25T02:36:33;14.23;;;4.30;;
1715;SDS011;855;48.824;9.220;2022-11-25T02:39:01;6.17;;;4.40;;
1715;SDS011;855;48.824;9.220;2022-11-25T02:41:29;13.73;;;4.63;;
1715;SDS011;855;48.824;9.220;2022-11-25T02:44:00;20.17;;;6.23;;
1715;SDS011;855;48.824;9.220;2022-11-25T02:46:28;6.40;;;4.43;;
1715;SDS011;855;48.824;9.220;2022-11-25T02:48:56;6.33;;;3.20;;
1715;SDS011;855;48.824;9.220;2022-11-25T02:51:24;9.33;;;4.50;;
1715;SDS011;855;48.824;9.220;2022-11-25T02:53:53;7.90;;;3.60;;
1715;SDS011;855;48.824;9.220;2022-11-25T02:56:22;9.03;;;4.77;;
1715;SDS011;855;48.824;9.220;2022-11-25T02:58:50;9.50;;;4.07;;
1715;SDS011;855;48.824;9.220;2022-11-25T03:01:18;9.40;;;5.80;;
1715;SDS011;855;48.824;9.220;2022-11-25T03:03:46;11.90;;;4.63;;
1715;SDS011;855;48.824;9.220;2022-11-25T03:06:13;9.33;;;5.10;;
1715;SDS011;855;48.824;9.220;2022-11-25T03:08:40;13.80;;;5.20;;
1715;SDS011;855;48.824;9.220;2022-11-25T03:11:06;8.10;;;4.13;;
1715;SDS011;855;48.824;9.220;2022-11-25T03:13:33;11.30;;;4.37;;
1715;SDS011;855;48.824;9.220;2022-11-25T03:16:00;11.10;;;5.23;;
1715;SDS011;855;48.824;9.220;2022-11-25T03:18:28;11.10;;;5.20;;
1715;SDS011;855;48.824;9.220;2022-11-25T03:20:55;12.27;;;5.97;;
1715;SDS011;855;48.824;9.220;2022-11-25T03:23:22;18.63;;;6.37;;
1715;SDS011;855;48.824;9.220;2022-11-25T03:25:49;16.27;;;5.40;;
1715;SDS011;855;48.824;9.220;2022-11-25T03:28:16;12.77;;;5.00;;
1715;SDS011;855;48.824;9.220;2022-11-25T03:30:43;17.07;;;5.40;;
1715;SDS011;855;48.824;9.220;2022-11-25T03:33:09;12.50;;;5.47;;
1715;SDS011;855;48.824;9.220;2022-11-25T03:35:38;13.47;;;5.30;;
1715;SDS011;855;48.824;9.220;2022-11-25T03:38:04;9.93;;;4.80;;
1715;SDS011;855;48.824;9.220;2022-11-25T03:40:31;12.43;;;5.37;;
1715;SDS011;855;48.824;9.220;2022-11-25T03:42:58;8.50;;;4.67;;
1715;SDS011;855;48.824;9.220;2022-11-25T03:45:25;21.83;;;5.20;;
1715;SDS011;855;48.824;9.220;2022-11-25T03:47:51;9.40;;;5.30;;
1715;SDS011;855;48.824;9.220;2022-11-25T03:50:18;9.33;;;4.93;;
1715;SDS011;855;48.824;9.220;2022-11-25T03:52:47;14.17;;;5.73;;
1715;SDS011;855;48.824;9.220;2022-11-25T03:55:13;8.57;;;6.00;;
1715;SDS011;855;48.824;9.220;2022-11-25T03:57:40;12.77;;;5.73;;
1715;SDS011;855;48.824;9.220;2022-11-25T04:00:08;9.93;;;5.97;;
1715;SDS011;855;48.824;9.220;2022-11-25T04:02:35;12.00;;;5.70;;
1715;SDS011;855;48.824;9.220;2022-11-25T04:05:02;10.80;;;4.77;;
1715;SDS011;855;48.824;9.220;2022-11-25T04:07:30;11.60;;;5.97;;
1715;SDS011;855;48.824;9.220;2022-11-25T04:09:58;10.00;;;5.67;;
1715;SDS011;855;48.824;9.220;2022-11-25T04:12:25;12.73;;;5.70;;
1715;SDS011;855;48.824;9.220;2022-11-25T04:15:09;14.53;;;5.77;;
1715;SDS011;855;48.824;9.220;2022-11-25T04:17:36;12.33;;;5.73;;
1715;SDS011;855;48.824;9.220;2022-11-25T04:20:03;14.73;;;5.30;;
1715;SDS011;855;48.824;9.220;2022-11-25T04:22:32;6.10;;;3.17;;
1715;SDS011;855;48.824;9.220;2022-11-25T04:25:00;9.77;;;5.33;;
1715;SDS011;855;48.824;9.220;2022-11-25T04:27:26;8.73;;;4.63;;
1715;SDS011;855;48.824;9.220;2022-11-25T04:29:53;13.20;;;5.10;;
1715;SDS011;855;48.824;9.220;2022-11-25T04:32:20;9.13;;;4.90;;
1715;SDS011;855;48.824;9.220;2022-11-25T04:34:47;11.73;;;5.23;;
1715;SDS011;855;48.824;9.220;2022-11-25T04:37:15;6.80;;;5.13;;
1715;SDS011;855;48.824;9.220;2022-11-25T04:39:42;6.53;;;5.00;;
1715;SDS011;855;48.824;9.220;2022-11-25T04:42:10;20.63;;;5.73;;
1715;SDS011;855;48.824;9.220;2022-11-25T04:44:54;11.07;;;5.00;;
1715;SDS011;855;48.824;9.220;2022-11-25T04:47:22;12.47;;;5.13;;
1715;SDS011;855;48.824;9.220;2022-11-25T04:49:49;6.97;;;4.20;;
1715;SDS011;855;48.824;9.220;2022-11-25T04:52:16;11.30;;;4.90;;
1715;SDS011;855;48.824;9.220;2022-11-25T04:54:43;9.63;;;4.50;;
1715;SDS011;855;48.824;9.220;2022-11-25T04:57:12;13.93;;;4.80;;
1715;SDS011;855;48.824;9.220;2022-11-25T04:59:40;14.23;;;4.87;;
1715;SDS011;855;48.824;9.220;2022-11-25T05:02:11;12.20;;;4.97;;
1715;SDS011;855;48.824;9.220;2022-11-25T05:04:40;10.13;;;4.40;;
1715;SDS011;855;48.824;9.220;2022-11-25T05:07:08;7.97;;;4.07;;
1715;SDS011;855;48.824;9.220;2022-11-25T05:09:35;12.13;;;4.60;;
1715;SDS011;855;48.824;9.220;2022-11-25T05:12:03;7.03;;;4.80;;
1715;SDS011;855;48.824;9.220;2022-11-25T05:14:32;10.20;;;5.00;;
1715;SDS011;855;48.824;9.220;2022-11-25T05:17:00;10.57;;;5.20;;
1715;SDS011;855;48.824;9.220;2022-11-25T05:19:27;8.63;;;4.53;;
1715;SDS011;855;48.824;9.220;2022-11-25T05:21:54;10.73;;;5.30;;
1715;SDS011;855;48.824;9.220;2022-11-25T05:24:22;10.00;;;4.20;;
1715;SDS011;855;48.824;9.220;2022-11-25T05:27:00;7.03;;;4.10;;
1715;SDS011;855;48.824;9.220;2022-11-25T05:29:28;10.93;;;5.60;;
1715;SDS011;855;48.824;9.220;2022-11-25T05:31:56;9.03;;;4.07;;
1715;SDS011;855;48.824;9.220;2022-11-25T05:34:24;7.20;;;4.90;;
1715;SDS011;855;48.824;9.220;2022-11-25T05:36:52;6.00;;;4.27;;
1715;SDS011;855;48.824;9.220;2022-11-25T05:39:19;7.83;;;4.70;;
1715;SDS011;855;48.824;9.220;2022-11-25T05:41:46;11.27;;;4.73;;
1715;SDS011;855;48.824;9.220;2022-11-25T05:44:13;5.17;;;3.77;;
1715;SDS011;855;48.824;9.220;2022-11-25T05:46:42;10.10;;;4.10;;
1715;SDS011;855;48.824;9.220;2022-11-25T05:49:12;8.30;;;5.93;;
1715;SDS011;855;48.824;9.220;2022-11-25T05:51:39;8.50;;;5.10;;
1715;SDS011;855;48.824;9.220;2022-11-25T05:54:07;6.37;;;4.07;;
1715;SDS011;855;48.824;9.220;2022-11-25T05:56:34;9.17;;;4.37;;
1715;SDS011;855;48.824;9.220;2022-11-25T05:59:01;16.83;;;4.40;;
1715;SDS011;855;48.824;9.220;2022-11-25T06:01:29;9.67;;;4.20;;
1715;SDS011;855;48.824;9.220;2022-11-25T06:03:58;12.47;;;5.57;;
1715;SDS011;855;48.824;9.220;2022-11-25T06:06:27;8.13;;;4.43;;
1715;SDS011;855;48.824;9.220;2022-11-25T06:08:55;14.30;;;5.53;;
1715;SDS011;855;48.824;9.220;2022-11-25T06:11:22;8.13;;;3.93;;
1715;SDS011;855;48.824;9.220;2022-11-25T06:13:50;10.50;;;4.30;;
1715;SDS011;855;48.824;9.220;2022-11-25T06:16:18;5.63;;;4.27;;
1715;SDS011;855;48.824;9.220;2022-11-25T06:18:47;11.23;;;6.13;;
1715;SDS011;855;48.824;9.220;2022-11-25T06:21:15;9.77;;;4.37;;
1715;SDS011;855;48.824;9.220;2022-11-25T06:23:44;9.57;;;4.40;;
1715;SDS011;855;48.824;9.220;2022-11-25T06:26:12;8.17;;;4.40;;
1715;SDS011;855;48.824;9.220;2022-11-25T06:28:40;7.30;;;4.27;;
1715;SDS011;855;48.824;9.220;2022-11-25T06:31:09;9.30;;;4.43;;
1715;SDS011;855;48.824;9.220;2022-11-25T06:33:38;13.00;;;4.77;;
1715;SDS011;855;48.824;9.220;2022-11-25T06:36:06;11.70;;;4.43;;
1715;SDS011;855;48.824;9.220;2022-11-25T06:38:37;10.70;;;4.77;;
1715;SDS011;855;48.824;9.220;2022-11-25T06:41:06;12.40;;;4.73;;
1715;SDS011;855;48.824;9.220;2022-11-25T06:43:34;9.97;;;4.43;;
1715;SDS011;855;48.824;9.220;2022-11-25T06:46:02;9.67;;;4.87;;
1715;SDS011;855;48.824;9.220;2022-11-25T06:48:30;12.43;;;6.40;;
1715;SDS011;855;48.824;9.220;2022-11-25T06:50:58;10.87;;;5.17;;
1715;SDS011;855;48.824;9.220;2022-11-25T06:53:27;11.87;;;5.07;;
1715;SDS011;855;48.824;9.220;2022-11-25T06:56:01;23.27;;;6.10;;
1715;SDS011;855;48.824;9.220;2022-11-25T06:58:30;11.53;;;5.70;;
1715;SDS011;855;48.824;9.220;2022-11-25T07:01:01;13.43;;;5.17;;
1715;SDS011;855;48.824;9.220;2022-11-25T07:03:29;16.00;;;6.27;;
1715;SDS011;855;48.824;9.220;2022-11-25T07:05:56;19.93;;;7.30;;
1715;SDS011;855;48.824;9.220;2022-11-25T07:08:24;17.43;;;6.40;;
1715;SDS011;855;48.824;9.220;2022-11-25T07:10:52;15.77;;;6.87;;
1715;SDS011;855;48.824;9.220;2022-11-25T07:13:19;12.60;;;6.73;;
1715;SDS011;855;48.824;9.220;2022-11-25T07:15:48;13.27;;;6.30;;
1715;SDS011;855;48.824;9.220;2022-11-25T07:18:15;9.23;;;4.87;;
1715;SDS011;855;48.824;9.220;2022-11-25T07:20:42;14.53;;;6.43;;
1715;SDS011;855;48.824;9.220;2022-11-25T07:23:09;8.70;;;6.10;;
1715;SDS011;855;48.824;9.220;2022-11-25T07:25:37;7.77;;;5.27;;
1715;SDS011;855;48.824;9.220;2022-11-25T07:28:04;14.70;;;5.77;;
1715;SDS011;855;48.824;9.220;2022-11-25T07:30:31;24.37;;;5.87;;
1715;SDS011;855;48.824;9.220;2022-11-25T07:33:00;9.90;;;5.77;;
1715;SDS011;855;48.824;9.220;2022-11-25T07:35:27;15.73;;;5.50;;
1715;SDS011;855;48.824;9.220;2022-11-25T07:37:54;17.30;;;5.10;;
1715;SDS011;855;48.824;9.220;2022-11-25T07:40:22;11.33;;;4.73;;
1715;SDS011;855;48.824;9.220;2022-11-25T07:42:49;16.83;;;4.90;;
1715;SDS011;855;48.824;9.220;2022-11-25T07:45:16;14.07;;;6.37;;
1715;SDS011;855;48.824;9.220;2022-11-25T07:47:43;15.60;;;6.23;;
1715;SDS011;855;48.824;9.220;2022-11-25T07:50:11;10.37;;;5.23;;
1715;SDS011;855;48.824;9.220;2022-11-25T07:52:39;11.33;;;5.73;;
1715;SDS011;855;48.824;9.220;2022-11-25T07:55:06;12.03;;;5.60;;
1715;SDS011;855;48.824;9.220;2022-11-25T07:57:34;14.83;;;5.57;;
1715;SDS011;855;48.824;9.220;2022-11-25T08:00:01;6.37;;;4.30;;
1715;SDS011;855;48.824;9.220;2022-11-25T08:02:29;12.77;;;5.20;;
1715;SDS011;855;48.824;9.220;2022-11-25T08:04:56;16.63;;;5.43;;
1715;SDS011;855;48.824;9.220;2022-11-25T08:07:24;8.07;;;4.67;;
1715;SDS011;855;48.824;9.220;2022-11-25T08:09:51;14.70;;;5.50;;
1715;SDS011;855;48.824;9.220;2022-11-25T08:12:18;9.97;;;4.73;;
1715;SDS011;855;48.824;9.220;2022-11-25T08:14:47;12.40;;;4.63;;
1715;SDS011;855;48.824;9.220;2022-11-25T08:17:14;10.57;;;4.43;;
1715;SDS011;855;48.824;9.220;2022-11-25T08:19:41;13.17;;;4.50;;
1715;SDS011;855;48.824;9.220;2022-11-25T08:22:08;8.50;;;3.93;;
1715;SDS011;855;48.824;9.220;2022-11-25T08:24:36;9.13;;;3.97;;
1715;SDS011;855;48.824;9.220;2022-11-25T08:27:04;12.83;;;4.77;;
1715;SDS011;855;48.824;9.220;2022-11-25T08:29:31;6.17;;;4.80;;
1715;SDS011;855;48.824;9.220;2022-11-25T08:31:58;6.93;;;4.00;;
1715;SDS011;855;48.824;9.220;2022-11-25T08:34:25;7.83;;;4.03;;
1715;SDS011;855;48.824;9.220;2022-11-25T08:36:52;12.57;;;4.33;;
1715;SDS011;855;48.824;9.220;2022-11-25T08:39:19;16.40;;;4.63;;
1715;SDS011;855;48.824;9.220;2022-11-25T08:41:51;6.87;;;4.30;;
1715;SDS011;855;48.824;9.220;2022-11-25T08:44:18;11.20;;;5.70;;
1715;SDS011;855;48.824;9.220;2022-11-25T08:46:44;13.63;;;5.67;;
1715;SDS011;855;48.824;9.220;2022-11-25T08:49:12;14.73;;;5.37;;
1715;SDS011;855;48.824;9.220;2022-11-25T08:51:41;12.97;;;4.03;;
1715;SDS011;855;48.824;9.220;2022-11-25T08:54:08;6.10;;;3.30;;
1715;SDS011;855;48.824;9.220;2022-11-25T08:56:43;14.83;;;5.40;;
1715;SDS011;855;48.824;9.220;2022-11-25T08:59:13;9.30;;;5.23;;
1715;SDS011;855;48.824;9.220;2022-11-25T09:01:40;9.07;;;5.70;;
1715;SDS011;855;48.824;9.220;2022-11-25T09:04:06;4.33;;;3.53;;
1715;SDS011;855;48.824;9.220;2022-11-25T09:06:33;14.50;;;5.07;;
1715;SDS011;855;48.824;9.220;2022-11-25T09:09:00;8.17;;;4.00;;
1715;SDS011;855;48.824;9.220;2022-11-25T09:11:30;8.13;;;4.50;;
1715;SDS011;855;48.824;9.220;2022-11-25T09:13:56;5.97;;;3.47;;
1715;SDS011;855;48.824;9.220;2022-11-25T09:16:25;11.23;;;5.63;;
1715;SDS011;855;48.824;9.220;2022-11-25T09:18:52;10.37;;;5.40;;
1715;SDS011;855;48.824;9.220;2022-11-25T09:21:19;11.67;;;5.20;;
1715;SDS011;855;48.824;9.220;2022-11-25T09:23:48;9.20;;;4.87;;
1715;SDS011;855;48.824;9.220;2022-11-25T09:26:17;20.87;;;5.37;;
1715;SDS011;855;48.824;9.220;2022-11-25T09:28:46;8.80;;;4.53;;
1715;SDS011;855;48.824;9.220;2022-11-25T09:31:13;6.60;;;3.20;;
1715;SDS011;855;48.824;9.220;2022-11-25T09:33:41;7.23;;;4.30;;
1715;SDS011;855;48.824;9.220;2022-11-25T09:36:10;11.87;;;3.93;;
1715;SDS011;855;48.824;9.220;2022-11-25T09:38:39;4.50;;;3.90;;
1715;SDS011;855;48.824;9.220;2022-11-25T09:41:14;8.73;;;4.30;;
1715;SDS011;855;48.824;9.220;2022-11-25T09:44:13;8.10;;;4.37;;
1715;SDS011;855;48.824;9.220;2022-11-25T09:47:07;3.97;;;2.23;;
1715;SDS011;855;48.824;9.220;2022-11-25T09:49:50;3.70;;;2.60;;
1715;SDS011;855;48.824;9.220;2022-11-25T09:52:29;7.63;;;3.93;;
1715;SDS011;855;48.824;9.220;2022-11-25T09:55:03;6.63;;;3.10;;
1715;SDS011;855;48.824;9.220;2022-11-25T09:57:51;7.83;;;3.30;;
1715;SDS011;855;48.824;9.220;2022-11-25T10:00:36;5.50;;;4.00;;
1715;SDS011;855;48.824;9.220;2022-11-25T10:03:06;8.00;;;3.53;;
1715;SDS011;855;48.824;9.220;2022-11-25T10:05:42;10.43;;;3.20;;
1715;SDS011;855;48.824;9.220;2022-11-25T10:08:14;9.33;;;3.90;;
1715;SDS011;855;48.824;9.220;2022-11-25T10:10:45;10.30;;;4.27;;
1715;SDS011;855;48.824;9.220;2022-11-25T10:13:16;4.37;;;3.00;;
1715;SDS011;855;48.824;9.220;2022-11-25T10:15:45;7.53;;;3.67;;
1715;SDS011;855;48.824;9.220;2022-11-25T10:18:16;14.20;;;4.10;;
1715;SDS011;855;48.824;9.220;2022-11-25T10:20:49;10.93;;;2.60;;
1715;SDS011;855;48.824;9.220;2022-11-25T10:23:19;5.43;;;2.97;;
1715;SDS011;855;48.824;9.220;2022-11-25T10:25:50;5.13;;;3.80;;
1715;SDS011;855;48.824;9.220;2022-11-25T10:28:22;9.90;;;3.40;;
1715;SDS011;855;48.824;9.220;2022-11-25T10:30:51;10.90;;;2.73;;
1715;SDS011;855;48.824;9.220;2022-11-25T10:33:24;11.20;;;2.73;;
1715;SDS011;855;48.824;9.220;2022-11-25T10:35:55;4.20;;;1.80;;
1715;SDS011;855;48.824;9.220;2022-11-25T10:38:26;7.10;;;3.93;;
1715;SDS011;855;48.824;9.220;2022-11-25T10:41:02;6.60;;;2.67;;
1715;SDS011;855;48.824;9.220;2022-11-25T10:43:30;4.27;;;2.70;;
1715;SDS011;855;48.824;9.220;2022-11-25T10:46:01;5.00;;;2.70;;
1715;SDS011;855;48.824;9.220;2022-11-25T10:48:41;4.60;;;3.13;;
1715;SDS011;855;48.824;9.220;2022-11-25T10:51:19;6.40;;;3.43;;
1715;SDS011;855;48.824;9.220;2022-11-25T10:54:12;4.77;;;3.43;;
1715;SDS011;855;48.824;9.220;2022-11-25T10:56:44;5.37;;;4.13;;
1715;SDS011;855;48.824;9.220;2022-11-25T10:59:20;4.70;;;3.10;;
1715;SDS011;855;48.824;9.220;2022-11-25T11:02:03;9.00;;;4.37;;
1715;SDS011;855;48.824;9.220;2022-11-25T11:04:47;2.97;;;2.30;;
1715;SDS011;855;48.824;9.220;2022-11-25T11:07:19;2.53;;;2.33;;
1715;SDS011;855;48.824;9.220;2022-11-25T11:09:46;6.83;;;3.23;;
1715;SDS011;855;48.824;9.220;2022-11-25T11:12:14;7.17;;;4.43;;
1715;SDS011;855;48.824;9.220;2022-11-25T11:14:45;20.23;;;3.13;;
1715;SDS011;855;48.824;9.220;2022-11-25T11:17:20;6.00;;;3.47;;
1715;SDS011;855;48.824;9.220;2022-11-25T11:20:12;11.70;;;4.27;;
1715;SDS011;855;48.824;9.220;2022-11-25T11:22:48;7.10;;;3.27;;
1715;SDS011;855;48.824;9.220;2022-11-25T11:25:24;9.63;;;3.40;;
1715;SDS011;855;48.824;9.220;2022-11-25T11:27:53;4.73;;;3.43;;
1715;SDS011;855;48.824;9.220;2022-11-25T11:30:21;5.80;;;3.50;;
1715;SDS011;855;48.824;9.220;2022-11-25T11:32:59;5.90;;;3.70;;
1715;SDS011;855;48.824;9.220;2022-11-25T11:35:30;4.20;;;2.20;;
1715;SDS011;855;48.824;9.220;2022-11-25T11:38:06;8.77;;;3.83;;
1715;SDS011;855;48.824;9.220;2022-11-25T11:40:53;30.60;;;4.67;;
1715;SDS011;855;48.824;9.220;2022-11-25T11:43:27;3.20;;;2.33;;
1715;SDS011;855;48.824;9.220;2022-11-25T11:46:17;4.30;;;2.70;;
1715;SDS011;855;48.824;9.220;2022-11-25T11:48:54;6.13;;;3.40;;
1715;SDS011;855;48.824;9.220;2022-11-25T11:51:41;2.97;;;2.77;;
1715;SDS011;855;48.824;9.220;2022-11-25T11:54:17;4.43;;;2.10;;
1715;SDS011;855;48.824;9.220;2022-11-25T11:56:55;19.27;;;3.93;;
1715;SDS011;855;48.824;9.220;2022-11-25T11:59:41;4.50;;;2.60;;
1715;SDS011;855;48.824;9.220;2022-11-25T12:05:13;2.30;;;1.83;;
1715;SDS011;855;48.824;9.220;2022-11-25T12:07:45;3.60;;;2.33;;
1715;SDS011;855;48.824;9.220;2022-11-25T12:10:23;1.40;;;1.40;;
1715;SDS011;855;48.824;9.220;2022-11-25T12:12:55;1.67;;;1.53;;
1715;SDS011;855;48.824;9.220;2022-11-25T12:15:32;3.77;;;1.87;;
1715;SDS011;855;48.824;9.220;2022-11-25T12:18:09;10.65;;;2.28;;
1715;SDS011;855;48.824;9.220;2022-11-25T12:20:44;1.47;;;1.17;;
1715;SDS011;855;48.824;9.220;2022-11-25T12:23:17;2.37;;;2.17;;
1715;SDS011;855;48.824;9.220;2022-11-25T12:25:54;0.90;;;0.80;;
1715;SDS011;855;48.824;9.220;2022-11-25T12:28:28;1.40;;;1.30;;
1715;SDS011;855;48.824;9.220;2022-11-25T12:31:01;2.40;;;1.73;;
1715;SDS011;855;48.824;9.220;2022-11-25T12:33:39;4.53;;;1.47;;
1715;SDS011;855;48.824;9.220;2022-11-25T12:36:12;1.40;;;1.30;;
1715;SDS011;855;48.824;9.220;2022-11-25T12:38:44;1.30;;;1.20;;
1715;SDS011;855;48.824;9.220;2022-11-25T12:41:18;2.33;;;1.27;;
1715;SDS011;855;48.824;9.220;2022-11-25T12:43:51;1.87;;;1.60;;
1715;SDS011;855;48.824;9.220;2022-11-25T12:46:24;1.30;;;1.20;;
1715;SDS011;855;48.824;9.220;2022-11-25T12:48:58;5.80;;;1.33;;
1715;SDS011;855;48.824;9.220;2022-11-25T12:54:17;1.57;;;1.47;;
1715;SDS011;855;48.824;9.220;2022-11-25T12:57:05;7.07;;;2.20;;
1715;SDS011;855;48.824;9.220;2022-11-25T13:00:09;8.30;;;2.60;;
1715;SDS011;855;48.824;9.220;2022-11-25T13:03:05;1.70;;;1.60;;
1715;SDS011;855;48.824;9.220;2022-11-25T13:05:59;6.53;;;1.53;;
1715;SDS011;855;48.824;9.220;2022-11-25T13:08:50;5.50;;;2.07;;
1715;SDS011;855;48.824;9.220;2022-11-25T13:11:26;5.50;;;1.60;;
1715;SDS011;855;48.824;9.220;2022-11-25T13:14:14;13.40;;;2.60;;
1715;SDS011;855;48.824;9.220;2022-11-25T13:16:49;3.13;;;1.70;;
1715;SDS011;855;48.824;9.220;2022-11-25T13:19:17;5.80;;;1.60;;
1715;SDS011;855;48.824;9.220;2022-11-25T13:21:55;3.13;;;1.93;;
1715;SDS011;855;48.824;9.220;2022-11-25T13:24:29;3.73;;;1.90;;
1715;SDS011;855;48.824;9.220;2022-11-25T13:26:57;2.63;;;1.77;;
1715;SDS011;855;48.824;9.220;2022-11-25T13:32:30;2.07;;;1.70;;
1715;SDS011;855;48.824;9.220;2022-11-25T13:43:50;4.13;;;2.10;;
1715;SDS011;855;48.824;9.220;2022-11-25T13:46:31;2.60;;;1.83;;
1715;SDS011;855;48.824;9.220;2022-11-25T13:49:02;2.20;;;1.53;;
1715;SDS011;855;48.824;9.220;2022-11-25T13:51:31;2.37;;;1.73;;
1715;SDS011;855;48.824;9.220;2022-11-25T13:53:59;1.23;;;1.20;;
1715;SDS011;855;48.824;9.220;2022-11-25T13:56:29;3.53;;;1.53;;
1715;SDS011;855;48.824;9.220;2022-11-25T13:59:18;2.00;;;1.63;;
1715;SDS011;855;48.824;9.220;2022-11-25T14:08:33;2.73;;;1.80;;
1715;SDS011;855;48.824;9.220;2022-11-25T14:11:19;3.83;;;1.83;;
1715;SDS011;855;48.824;9.220;2022-11-25T14:14:14;4.87;;;1.47;;
1715;SDS011;855;48.824;9.220;2022-11-25T14:17:14;9.63;;;2.20;;
1715;SDS011;855;48.824;9.220;2022-11-25T14:20:05;2.67;;;1.90;;
1715;SDS011;855;48.824;9.220;2022-11-25T14:22:55;3.50;;;1.63;;
1715;SDS011;855;48.824;9.220;2022-11-25T14:25:42;3.20;;;1.67;;
1715;SDS011;855;48.824;9.220;2022-11-25T14:28:19;4.93;;;2.10;;
1715;SDS011;855;48.824;9.220;2022-11-25T14:30:52;8.43;;;3.13;;
1715;SDS011;855;48.824;9.220;2022-11-25T14:33:24;2.20;;;1.90;;
1715;SDS011;855;48.824;9.220;2022-11-25T14:36:00;2.23;;;1.90;;
1715;SDS011;855;48.824;9.220;2022-11-25T14:38:34;7.27;;;2.87;;
1715;SDS011;855;48.824;9.220;2022-11-25T14:41:06;13.87;;;3.53;;
1715;SDS011;855;48.824;9.220;2022-11-25T14:43:37;3.13;;;1.97;;
1715;SDS011;855;48.824;9.220;2022-11-25T14:46:08;10.73;;;2.47;;
1715;SDS011;855;48.824;9.220;2022-11-25T14:48:36;1.27;;;0.90;;
1715;SDS011;855;48.824;9.220;2022-11-25T14:51:05;2.50;;;1.60;;
1715;SDS011;855;48.824;9.220;2022-11-25T14:53:37;6.60;;;1.43;;
1715;SDS011;855;48.824;9.220;2022-11-25T14:56:06;2.10;;;1.53;;
1715;SDS011;855;48.824;9.220;2022-11-25T14:58:33;3.13;;;1.80;;
1715;SDS011;855;48.824;9.220;2022-11-25T15:01:06;1.70;;;0.90;;
1715;SDS011;855;48.824;9.220;2022-11-25T15:03:44;2.47;;;1.13;;
1715;SDS011;855;48.824;9.220;2022-11-25T15:06:13;1.90;;;1.43;;
1715;SDS011;855;48.824;9.220;2022-11-25T15:08:44;1.27;;;1.20;;
1715;SDS011;855;48.824;9.220;2022-11-25T15:11:18;0.87;;;0.70;;
1715;SDS011;855;48.824;9.220;2022-11-25T15:13:48;0.60;;;0.53;;
1715;SDS011;855;48.824;9.220;2022-11-25T15:16:21;0.87;;;0.77;;
1715;SDS011;855;48.824;9.220;2022-11-25T15:18:51;3.07;;;1.20;;
1715;SDS011;855;48.824;9.220;2022-11-25T15:21:22;13.53;;;1.50;;
1715;SDS011;855;48.824;9.220;2022-11-25T15:23:54;1.03;;;0.63;;
1715;SDS011;855;48.824;9.220;2022-11-25T15:26:22;6.27;;;1.20;;
1715;SDS011;855;48.824;9.220;2022-11-25T15:28:52;1.60;;;0.90;;
1715;SDS011;855;48.824;9.220;2022-11-25T15:31:23;3.53;;;0.90;;
1715;SDS011;855;48.824;9.220;2022-11-25T15:33:52;4.43;;;1.67;;
1715;SDS011;855;48.824;9.220;2022-11-25T15:36:23;7.17;;;1.60;;
1715;SDS011;855;48.824;9.220;2022-11-25T15:38:51;0.80;;;0.70;;
1715;SDS011;855;48.824;9.220;2022-11-25T15:41:20;0.80;;;0.63;;
1715;SDS011;855;48.824;9.220;2022-11-25T15:43:55;9.70;;;1.40;;
1715;SDS011;855;48.824;9.220;2022-11-25T15:49:00;1.00;;;0.90;;
1715;SDS011;855;48.824;9.220;2022-11-25T15:51:32;5.23;;;1.47;;
1715;SDS011;855;48.824;9.220;2022-11-25T15:54:04;1.10;;;0.60;;
1715;SDS011;855;48.824;9.220;2022-11-25T15:56:38;3.70;;;1.33;;
1715;SDS011;855;48.824;9.220;2022-11-25T16:02:25;4.10;;;1.80;;
1715;SDS011;855;48.824;9.220;2022-11-25T16:05:14;4.00;;;1.30;;
1715;SDS011;855;48.824;9.220;2022-11-25T16:08:02;1.40;;;0.80;;
1715;SDS011;855;48.824;9.220;2022-11-25T16:10:59;13.40;;;1.43;;
1715;SDS011;855;48.824;9.220;2022-11-25T16:18:52;1.73;;;0.93;;
1715;SDS011;855;48.824;9.220;2022-11-25T16:27:17;2.30;;;1.57;;
1715;SDS011;855;48.824;9.220;2022-11-25T16:29:47;3.50;;;1.80;;
1715;SDS011;855;48.824;9.220;2022-11-25T16:32:19;3.77;;;1.53;;
1715;SDS011;855;48.824;9.220;2022-11-25T16:34:47;2.30;;;1.77;;
1715;SDS011;855;48.824;9.220;2022-11-25T16:37:14;1.50;;;0.90;;
1715;SDS011;855;48.824;9.220;2022-11-25T16:39:41;1.13;;;1.03;;